Time;durP1;ratioP1;P1;durP2;ratioP2;P2;SDS_P1;SDS_P2;PMS_P1;PMS_P2;Temp;Humidity;BMP_temperature;BMP_pressure;BME280_temperature;BME280_humidity;BME280_pressure;Samples;Min_cycle;Max_cycle;Signal;HPM_P1;HPM_P2
2022/07/31 00:01:57;;;;;;;6.28;3.05;;;;;;;18.51;100.00;165409.88;5024419;28;20022;-59
2022/07/31 00:04:22;;;;;;;2.95;2.75;;;;;;;18.51;100.00;165408.47;5029317;28;20041;-59
2022/07/31 00:06:48;;;;;;;5.53;2.65;;;;;;;18.46;100.00;165394.94;5031287;28;20096;-58
2022/07/31 00:09:14;;;;;;;9.75;3.38;;;;;;;18.44;100.00;165389.50;5029202;28;20022;-58
2022/07/31 00:11:41;;;;;;;6.03;3.17;;;;;;;18.37;100.00;165373.22;5030741;28;20021;-59
2022/07/31 00:14:06;;;;;;;3.17;2.90;;;;;;;18.28;100.00;165347.47;5033500;28;20096;-59
2022/07/31 00:16:32;;;;;;;2.78;2.35;;;;;;;18.27;100.00;165346.16;5033811;28;20124;-59
2022/07/31 00:18:57;;;;;;;6.22;3.22;;;;;;;18.23;100.00;165335.28;5034931;28;20032;-58
2022/07/31 00:21:23;;;;;;;12.13;3.75;;;;;;;18.20;100.00;165327.16;5033373;28;20041;-59
2022/07/31 00:23:48;;;;;;;4.47;3.30;;;;;;;18.10;100.00;165300.03;5034269;28;20041;-58
2022/07/31 00:26:14;;;;;;;5.15;2.95;;;;;;;18.13;100.00;165308.19;5033101;28;20072;-59
2022/07/31 00:28:39;;;;;;;4.22;3.88;;;;;;;18.13;100.00;165308.19;5033051;28;20047;-58
2022/07/31 00:31:04;;;;;;;5.55;3.47;;;;;;;18.11;100.00;165302.75;5033241;28;20044;-59
2022/07/31 00:33:30;;;;;;;3.33;2.53;;;;;;;18.11;100.00;165302.75;5034163;28;20151;-58
2022/07/31 00:35:55;;;;;;;10.25;3.67;;;;;;;-146.58;100.00;69501.63;5033219;28;20037;-59
2022/07/31 00:38:20;;;;;;;4.03;3.08;;;;;;;-146.58;100.00;69501.63;5030105;28;20037;-58
2022/07/31 00:40:47;;;;;;;7.05;3.13;;;;;;;-146.58;100.00;69501.63;5013254;28;20033;-58
2022/07/31 00:43:13;;;;;;;7.93;3.15;;;;;;;18.08;100.00;165297.31;5014918;28;20057;-59
2022/07/31 00:45:39;;;;;;;5.93;3.20;;;;;;;18.04;100.00;165286.50;5017907;28;20041;-59
2022/07/31 00:48:05;;;;;;;4.38;2.78;;;;;;;17.99;100.00;165272.91;5034217;28;20109;-58
2022/07/31 00:50:30;;;;;;;4.63;3.65;;;;;;;17.90;100.00;165249.81;5032787;28;20107;-58
2022/07/31 00:52:55;;;;;;;7.90;3.25;;;;;;;17.89;100.00;165247.09;5034327;28;20029;-58
2022/07/31 00:55:21;;;;;;;7.03;3.65;;;;;;;17.85;100.00;165234.88;5032410;28;20037;-58
2022/07/31 00:57:47;;;;;;;4.80;2.80;;;;;;;17.75;100.00;165209.16;5031217;28;20022;-59
2022/07/31 01:00:13;;;;;;;9.02;3.42;;;;;;;17.75;100.00;165210.53;5013043;28;20041;-59
2022/07/31 01:02:38;;;;;;;5.47;2.92;;;;;;;17.70;100.00;165196.94;5022746;28;20542;-58
2022/07/31 01:05:04;;;;;;;37.83;7.93;;;;;;;17.66;100.00;165186.13;5032668;28;20038;-59
2022/07/31 01:07:29;;;;;;;6.70;3.10;;;;;;;17.63;100.00;165177.97;5033837;28;20485;-58
2022/07/31 01:09:55;;;;;;;6.97;3.58;;;;;;;17.62;100.00;165175.25;5031987;28;20041;-58
2022/07/31 01:12:29;;;;;;;4.13;3.33;;;;;;;17.57;100.00;165161.72;5033356;28;20481;-58
2022/07/31 01:14:58;;;;;;;3.40;2.80;;;;;;;17.55;100.00;165156.28;5032699;28;20106;-59
2022/07/31 01:17:27;;;;;;;11.77;4.45;;;;;;;17.54;100.00;165153.56;5013995;28;20092;-59
2022/07/31 01:19:53;;;;;;;6.05;3.65;;;;;;;17.50;100.00;165142.72;5013816;28;20069;-58
2022/07/31 01:22:22;;;;;;;7.30;3.80;;;;;;;17.55;100.00;165156.28;5014102;28;20036;-58
2022/07/31 01:25:01;;;;;;;7.07;3.33;;;;;;;17.57;100.00;165161.72;5012103;28;20108;-58
2022/07/31 01:28:05;;;;;;;6.53;3.15;;;;;;;17.60;100.00;165169.84;5013715;28;20073;-59
2022/07/31 01:30:35;;;;;;;5.30;2.92;;;;;;;17.59;100.00;165167.16;5012196;28;20049;-59
2022/07/31 01:33:14;;;;;;;11.45;3.72;;;;;;;17.59;100.00;165168.47;5029090;28;20029;-58
2022/07/31 01:35:50;;;;;;;7.47;3.55;;;;;;;17.62;100.00;165175.25;5032069;28;20050;-58
2022/07/31 01:38:21;;;;;;;10.57;3.83;;;;;;;17.61;100.00;165172.53;5033232;28;20026;-58
2022/07/31 01:40:53;;;;;;;4.90;3.63;;;;;;;17.59;100.00;165167.16;5032268;28;20176;-58
2022/07/31 01:43:22;;;;;;;4.70;3.35;;;;;;;17.59;100.00;165168.47;5033277;28;20195;-58
2022/07/31 01:45:52;;;;;;;5.03;2.83;;;;;;;17.59;100.00;165167.16;5031127;28;20421;-59
2022/07/31 01:48:19;;;;;;;11.73;4.25;;;;;;;17.60;100.00;165169.84;5032488;28;20024;-58
2022/07/31 01:50:47;;;;;;;6.18;4.97;;;;;;;17.55;100.00;165157.66;5031906;28;20034;-58
2022/07/31 01:53:20;;;;;;;5.40;3.53;;;;;;;17.56;100.00;165159.00;5015609;28;20551;-59
2022/07/31 01:55:47;;;;;;;14.13;6.30;;;;;;;17.55;100.00;165157.66;5012238;28;20049;-58
2022/07/31 01:58:14;;;;;;;5.80;4.22;;;;;;;17.54;100.00;165153.56;5029614;28;20060;-58
2022/07/31 02:00:41;;;;;;;4.75;4.13;;;;;;;17.51;100.00;165145.44;5031551;28;20045;-58
2022/07/31 02:03:08;;;;;;;4.68;3.28;;;;;;;17.45;100.00;165130.53;5032982;28;20033;-58
2022/07/31 02:05:35;;;;;;;11.93;5.07;;;;;;;17.41;100.00;165121.03;5030814;28;20160;-59
2022/07/31 02:08:03;;;;;;;6.45;4.68;;;;;;;17.36;100.00;165107.50;5032628;28;20021;-58
2022/07/31 02:10:30;;;;;;;6.60;3.90;;;;;;;17.31;100.00;165093.97;5031334;28;20076;-58
2022/07/31 02:12:56;;;;;;;5.18;3.88;;;;;;;17.25;100.00;165077.66;5018129;28;20040;-58
2022/07/31 02:15:22;;;;;;;5.13;3.80;;;;;;;17.20;100.00;165065.47;5011138;28;20046;-58
2022/07/31 02:17:50;;;;;;;4.60;4.15;;;;;;;17.17;100.00;165055.97;5029287;28;20079;-58
2022/07/31 02:20:15;;;;;;;6.25;3.10;;;;;;;17.15;100.00;165051.94;5025301;28;20038;-58
2022/07/31 02:22:41;;;;;;;7.10;4.15;;;;;;;17.12;100.00;165043.81;5012669;28;20025;-58
2022/07/31 02:25:07;;;;;;;4.82;2.97;;;;;;;17.09;100.00;165037.00;5011388;28;20144;-58
2022/07/31 02:27:33;;;;;;;4.90;3.22;;;;;;;17.05;100.00;165024.88;5012690;28;20095;-58
2022/07/31 02:30:01;;;;;;;10.05;4.53;;;;;;;17.10;100.00;165039.72;5011024;28;20038;-59
2022/07/31 02:32:27;;;;;;;7.45;3.85;;;;;;;17.05;100.00;165026.19;5025530;28;20025;-59
2022/07/31 02:34:57;;;;;;;6.35;4.18;;;;;;;17.01;100.00;165015.38;5030589;28;20110;-59
2022/07/31 02:37:24;;;;;;;4.38;3.42;;;;;;;17.02;100.00;165018.03;5017464;28;20025;-58
2022/07/31 02:39:52;;;;;;;5.85;4.75;;;;;;;17.01;100.00;165015.38;5011233;28;20556;-58
2022/07/31 02:42:18;;;;;;;7.97;3.72;;;;;;;17.00;100.00;165012.66;5012222;28;20060;-58
2022/07/31 02:44:45;;;;;;;5.93;3.95;;;;;;;16.99;100.00;165009.94;5019340;28;20065;-58
2022/07/31 02:47:11;;;;;;;9.55;4.07;;;;;;;17.01;100.00;165015.38;5032089;28;20029;-59
2022/07/31 02:49:37;;;;;;;6.95;3.80;;;;;;;16.95;100.00;164999.06;5018743;28;20129;-58
2022/07/31 02:52:04;;;;;;;7.00;4.25;;;;;;;16.97;100.00;165004.50;5012045;28;20112;-59
2022/07/31 02:54:31;;;;;;;5.93;3.95;;;;;;;16.99;100.00;165008.56;5010938;28;20576;-59
2022/07/31 02:56:56;;;;;;;6.10;4.05;;;;;;;16.99;100.00;165008.56;5012779;28;20034;-59
2022/07/31 02:59:22;;;;;;;5.57;3.53;;;;;;;17.00;100.00;165011.28;5010372;28;20018;-58
2022/07/31 03:01:48;;;;;;;7.10;3.42;;;;;;;16.99;100.00;165008.56;5013671;28;20512;-59
2022/07/31 03:04:13;;;;;;;3.83;3.53;;;;;;;17.05;100.00;165024.88;5030327;28;20487;-58
2022/07/31 03:06:38;;;;;;;4.07;3.78;;;;;;;17.07;100.00;165030.25;5031621;28;20035;-59
2022/07/31 03:09:04;;;;;;;5.90;3.50;;;;;;;17.05;100.00;165026.19;5031729;28;20033;-59
2022/07/31 03:11:29;;;;;;;5.65;3.70;;;;;;;17.06;100.00;165027.53;5030183;28;20519;-59
2022/07/31 03:13:57;;;;;;;5.60;3.70;;;;;;;17.09;100.00;165037.00;5029599;28;20392;-59
2022/07/31 03:16:24;;;;;;;4.47;3.28;;;;;;;17.15;100.00;165050.59;5010119;28;20054;-58
2022/07/31 03:18:52;;;;;;;4.60;3.13;;;;;;;17.17;100.00;165057.38;5012294;28;20026;-58
2022/07/31 03:21:19;;;;;;;4.63;3.40;;;;;;;17.19;100.00;165061.41;5029029;28;20584;-58
2022/07/31 03:23:46;;;;;;;5.70;3.33;;;;;;;17.20;100.00;165064.13;5011768;28;20076;-58
2022/07/31 03:26:12;;;;;;;6.38;3.33;;;;;;;17.20;100.00;165064.13;5010300;28;20038;-58
2022/07/31 03:28:37;;;;;;;4.22;3.80;;;;;;;17.21;100.00;165068.19;5011605;28;20088;-58
2022/07/31 03:31:02;;;;;;;9.95;3.13;;;;;;;17.24;100.00;165074.94;5009942;28;20054;-58
2022/07/31 03:33:28;;;;;;;5.95;3.28;;;;;;;17.27;100.00;165084.50;5011317;28;20022;-59
2022/07/31 03:35:54;;;;;;;3.92;3.20;;;;;;;17.28;100.00;165085.81;5010324;28;20041;-58
2022/07/31 03:38:19;;;;;;;10.43;4.18;;;;;;;17.31;100.00;165093.97;5028280;28;20032;-58
2022/07/31 03:40:46;;;;;;;4.50;4.00;;;;;;;17.32;100.00;165096.63;5030016;28;20386;-58
2022/07/31 03:43:12;;;;;;;6.95;4.10;;;;;;;17.38;100.00;165112.94;5017304;28;20036;-58
2022/07/31 03:45:38;;;;;;;8.35;4.57;;;;;;;17.42;100.00;165123.75;5009619;28;20128;-58
2022/07/31 03:48:07;;;;;;;10.07;3.20;;;;;;;17.39;100.00;165115.59;5025609;28;20037;-58
2022/07/31 03:50:36;;;;;;;7.15;3.13;;;;;;;17.43;100.00;165126.47;5013456;28;20057;-58
2022/07/31 03:53:03;;;;;;;5.18;3.70;;;;;;;17.46;100.00;165131.91;5011087;28;20033;-58
2022/07/31 03:55:29;;;;;;;3.63;3.35;;;;;;;17.47;100.00;165135.97;5009852;28;20069;-58
2022/07/31 03:57:57;;;;;;;9.43;4.35;;;;;;;17.49;100.00;165141.41;5011761;28;20057;-58
2022/07/31 04:00:26;;;;;;;5.72;4.15;;;;;;;17.54;100.00;165154.94;5009523;28;20100;-58
2022/07/31 04:02:55;;;;;;;10.10;4.45;;;;;;;17.57;100.00;165161.72;5025936;28;20104;-58
2022/07/31 04:05:21;;;;;;;4.95;3.10;;;;;;;17.60;100.00;165169.84;5029364;28;20045;-58
2022/07/31 04:07:46;;;;;;;3.65;3.30;;;;;;;17.62;100.00;165175.25;5030655;28;20095;-58
2022/07/31 04:10:12;;;;;;;3.35;2.92;;;;;;;17.64;100.00;165180.69;5012482;28;20046;-59
2022/07/31 04:12:37;;;;;;;5.63;3.85;;;;;;;17.68;100.00;165191.56;5023615;28;20023;-59
2022/07/31 04:15:03;;;;;;;5.00;2.95;;;;;;;17.68;100.00;165191.56;5029456;28;20050;-58
2022/07/31 04:17:28;;;;;;;6.05;3.63;;;;;;;17.71;100.00;165199.66;5030628;28;20413;-59
2022/07/31 04:19:54;;;;;;;7.78;2.97;;;;;;;17.75;100.00;165210.53;5029446;28;20029;-58
2022/07/31 04:22:19;;;;;;;8.60;3.92;;;;;;;17.80;100.00;165221.34;5017833;28;20466;-58
2022/07/31 04:24:45;;;;;;;17.05;5.22;;;;;;;17.86;100.00;165237.59;5009602;28;20046;-58
2022/07/31 04:27:10;;;;;;;4.97;3.53;;;;;;;17.86;100.00;165239.00;5019270;28;20404;-59
2022/07/31 04:29:36;;;;;;;3.65;3.15;;;;;;;17.91;100.00;165251.16;5028987;28;20033;-58
2022/07/31 04:32:01;;;;;;;4.00;3.60;;;;;;;17.98;100.00;165268.84;5030909;28;20030;-58
2022/07/31 04:34:26;;;;;;;4.80;3.08;;;;;;;18.00;100.00;165275.59;5029216;28;20025;-58
2022/07/31 04:36:52;;;;;;;8.68;3.33;;;;;;;18.08;100.00;165297.31;5030933;28;20025;-58
2022/07/31 04:39:17;;;;;;;5.85;2.85;;;;;;;18.13;100.00;165308.19;5026180;28;20056;-58
2022/07/31 04:41:43;;;;;;;4.78;3.00;;;;;;;18.18;100.00;165321.72;5011177;28;20095;-58
2022/07/31 04:44:09;;;;;;;4.63;3.35;;;;;;;18.19;100.00;165324.44;5010570;28;20034;-58
2022/07/31 04:46:34;;;;;;;6.82;2.70;;;;;;;18.23;100.00;165335.28;5017592;28;20076;-59
2022/07/31 04:49:00;;;;;;;3.30;2.83;;;;;;;18.28;100.00;165347.47;5030694;28;20026;-58
2022/07/31 04:51:25;;;;;;;12.75;3.40;;;;;;;18.30;100.00;165352.91;5028650;28;20049;-58
2022/07/31 04:53:51;;;;;;;3.30;3.10;;;;;;;18.29;100.00;165351.53;5030588;28;20021;-58
2022/07/31 04:56:32;;;;;;;6.68;2.65;;;;;;;18.34;100.00;165363.75;5028922;28;20038;-58
2022/07/31 04:59:00;;;;;;;5.47;3.28;;;;;;;18.38;100.00;165375.94;5032083;28;20111;-59
2022/07/31 05:01:25;;;;;;;5.05;3.03;;;;;;;18.33;100.00;165362.41;5032259;28;20049;-58
2022/07/31 05:03:51;;;;;;;6.32;3.28;;;;;;;18.31;100.00;165356.97;5033495;28;20033;-58
2022/07/31 05:06:16;;;;;;;7.53;3.50;;;;;;;18.30;100.00;165354.25;5032184;28;20038;-58
2022/07/31 05:08:42;;;;;;;3.88;3.20;;;;;;;18.30;100.00;165354.25;5034371;28;20033;-58
2022/07/31 05:11:23;;;;;;;6.53;3.42;;;;;;;18.32;100.00;165359.69;5014762;28;20386;-58
2022/07/31 05:13:53;;;;;;;4.78;3.80;;;;;;;18.35;100.00;165366.47;5013944;28;20509;-58
2022/07/31 05:16:20;;;;;;;3.80;3.20;;;;;;;18.31;100.00;165356.97;5012625;28;20042;-58
2022/07/31 05:18:46;;;;;;;10.73;4.60;;;;;;;18.39;100.00;165377.34;5021166;28;20037;-59
2022/07/31 05:21:12;;;;;;;4.45;3.40;;;;;;;18.48;100.00;165400.38;5032043;28;20567;-59
2022/07/31 05:23:42;;;;;;;12.13;3.25;;;;;;;18.53;100.00;165415.31;5021617;28;20029;-58
2022/07/31 05:26:08;;;;;;;6.78;3.97;;;;;;;18.55;100.00;165419.34;5012453;28;20071;-58
2022/07/31 05:28:34;;;;;;;7.53;4.07;;;;;;;18.59;100.00;165430.19;5013312;28;20046;-58
2022/07/31 05:31:00;;;;;;;4.38;3.75;;;;;;;18.61;100.00;165435.63;5012711;28;20104;-58
2022/07/31 05:33:25;;;;;;;8.85;4.43;;;;;;;18.63;100.00;165441.06;5013483;28;20072;-59
2022/07/31 05:35:50;;;;;;;8.27;3.85;;;;;;;18.71;100.00;165461.38;5012272;28;20041;-59
2022/07/31 05:38:16;;;;;;;8.40;3.70;;;;;;;18.75;100.00;165470.88;5025195;28;20033;-59
2022/07/31 05:40:41;;;;;;;5.38;3.00;;;;;;;18.73;100.00;165465.47;5032084;28;20037;-59
2022/07/31 05:43:07;;;;;;;10.73;5.10;;;;;;;18.73;100.00;165465.47;5033291;28;20045;-58
2022/07/31 05:45:32;;;;;;;8.63;3.53;;;;;;;18.74;100.00;165469.53;5015378;28;20050;-58
2022/07/31 05:47:57;;;;;;;14.45;4.10;;;;;;;18.77;100.00;165476.31;5013662;28;20030;-58
2022/07/31 05:50:23;;;;;;;6.93;4.07;;;;;;;18.81;100.00;165488.53;5011808;28;20057;-58
2022/07/31 05:52:48;;;;;;;5.90;4.68;;;;;;;18.89;100.00;165508.84;5013432;28;20720;-58
2022/07/31 05:55:14;;;;;;;4.57;3.63;;;;;;;18.92;100.00;165517.06;5011936;28;20038;-58
2022/07/31 05:57:39;;;;;;;5.75;3.67;;;;;;;18.98;100.00;165533.31;5013094;28;20055;-59
2022/07/31 06:00:06;;;;;;;4.72;4.30;;;;;;;19.05;100.00;165550.97;5011987;28;20049;-59
2022/07/31 06:02:31;;;;;;;7.18;5.55;;;;;;;19.11;100.00;165565.84;5020725;28;20086;-59
2022/07/31 06:04:56;;;;;;;7.05;4.80;;;;;;;19.14;100.00;165574.03;5031276;28;20041;-58
2022/07/31 06:07:22;;;;;;;7.50;4.32;;;;;;;19.11;100.00;165567.25;5032210;28;20025;-58
2022/07/31 06:09:47;;;;;;;7.00;4.78;;;;;;;19.11;100.00;165565.84;5031090;28;20033;-59
2022/07/31 06:12:12;;;;;;;7.65;6.20;;;;;;;19.12;100.00;165569.97;5012770;28;20505;-59
2022/07/31 06:14:37;;;;;;;7.47;4.88;;;;;;;19.13;100.00;165571.31;5011768;28;20460;-58
2022/07/31 06:17:04;;;;;;;7.72;6.72;;;;;;;19.15;100.00;165576.75;5016228;28;20096;-58
2022/07/31 06:19:31;;;;;;;12.52;5.97;;;;;;;19.15;100.00;165576.75;5027985;28;20053;-58
2022/07/31 06:21:57;;;;;;;8.75;5.65;;;;;;;19.18;100.00;165584.84;5022819;28;20030;-58
2022/07/31 06:24:22;;;;;;;9.75;5.88;;;;;;;19.25;100.00;165603.84;5019466;28;20029;-59
2022/07/31 06:26:48;;;;;;;11.48;7.15;;;;;;;19.36;100.00;165631.00;5022626;28;20042;-58
2022/07/31 06:29:13;;;;;;;9.93;8.68;;;;;;;19.51;100.00;165671.69;5020657;28;20026;-59
2022/07/31 06:31:38;;;;;;;8.52;7.50;;;;;;;19.59;100.00;165693.41;5021576;28;20024;-59
2022/07/31 06:34:04;;;;;;;19.10;9.70;;;;;;;19.66;100.00;165712.41;5021635;28;20132;-58
2022/07/31 06:36:29;;;;;;;9.63;8.25;;;;;;;19.78;100.00;165743.63;5020860;28;20041;-59
2022/07/31 06:38:54;;;;;;;13.15;9.45;;;;;;;19.76;100.00;165736.84;5019378;28;20017;-58
2022/07/31 06:44:04;;;;;;;12.18;8.80;;;;;;;19.88;100.00;165769.44;5021910;28;20087;-58
2022/07/31 06:46:29;;;;;;;15.95;9.23;;;;;;;19.85;100.00;165761.28;5019774;28;20029;-59
2022/07/31 06:48:55;;;;;;;13.30;9.73;;;;;;;19.84;100.00;165758.63;5021712;28;20028;-58
2022/07/31 06:51:20;;;;;;;11.00;9.40;;;;;;;19.95;100.00;165788.44;5019434;28;20046;-58
2022/07/31 06:53:45;;;;;;;9.50;8.60;;;;;;;20.02;100.00;165804.72;5021119;28;20424;-58
2022/07/31 06:56:11;;;;;;;13.25;9.77;;;;;;;20.04;100.00;165810.16;5020807;28;20052;-58
2022/07/31 06:58:36;;;;;;;12.98;9.30;;;;;;;19.99;100.00;165796.59;5021083;28;20029;-58
2022/07/31 07:01:02;;;;;;;11.68;8.65;;;;;;;20.13;100.00;165834.59;5017719;28;20042;-59
2022/07/31 07:03:27;;;;;;;12.80;8.82;;;;;;;20.17;100.00;165845.44;5020605;28;20036;-59
2022/07/31 07:05:53;;;;;;;14.20;9.13;;;;;;;20.16;100.00;165842.72;5018433;28;20050;-59
2022/07/31 07:08:18;;;;;;;11.65;10.45;;;;;;;20.13;100.00;165834.59;5012472;28;20053;-58
2022/07/31 07:10:43;;;;;;;10.43;9.43;;;;;;;20.02;100.00;165806.09;5016252;28;20040;-58
2022/07/31 07:13:09;;;;;;;17.88;10.07;;;;;;;20.08;100.00;165822.38;5029609;28;20029;-58
2022/07/31 07:15:34;;;;;;;17.48;10.43;;;;;;;20.15;100.00;165840.00;5030183;28;20064;-58
2022/07/31 07:18:00;;;;;;;12.45;8.85;;;;;;;20.38;100.00;165899.72;5030963;28;20034;-58
2022/07/31 07:20:25;;;;;;;15.70;10.27;;;;;;;20.55;100.00;165945.91;5010013;28;20030;-59
2022/07/31 07:22:50;;;;;;;15.57;11.15;;;;;;;20.68;100.00;165979.84;5011860;28;20433;-59
2022/07/31 07:25:19;;;;;;;14.85;11.63;;;;;;;20.98;100.00;166057.25;5013484;28;20115;-59
2022/07/31 07:27:44;;;;;;;;;;;;;;;20.98;100.00;166057.25;5031651;28;20050;-59
2022/07/31 07:30:09;;;;;;;12.50;11.17;;;;;;;20.89;100.00;166035.53;5030245;28;19982;-58
2022/07/31 07:32:35;;;;;;;13.50;10.65;;;;;;;20.99;100.00;166059.97;5031148;28;20063;-59
2022/07/31 07:35:01;;;;;;;16.73;11.63;;;;;;;21.04;100.00;166073.53;5011122;28;20042;-58
2022/07/31 07:37:27;;;;;;;19.80;11.57;;;;;;;20.91;100.00;166040.97;5014587;28;20029;-58
2022/07/31 07:39:52;;;;;;;17.15;13.07;;;;;;;20.96;100.00;166053.22;5028590;28;20072;-59
2022/07/31 07:42:17;;;;;;;19.48;11.98;;;;;;;21.04;100.00;166073.53;5028923;28;20037;-58
2022/07/31 07:44:43;;;;;;;20.83;14.52;;;;;;;21.14;100.00;166099.38;5028476;28;20038;-59
2022/07/31 07:47:08;;;;;;;16.95;13.48;;;;;;;21.13;100.00;166098.00;5019345;28;20393;-59
2022/07/31 07:49:34;;;;;;;17.63;13.45;;;;;;;21.03;100.00;166070.88;5007242;28;20040;-58
2022/07/31 07:52:00;;;;;;;24.10;15.48;;;;;;;21.02;100.00;166068.16;5011664;28;20025;-58
2022/07/31 07:54:25;;;;;;;24.65;13.93;;;;;;;21.19;100.00;166112.94;5009865;28;20026;-59
2022/07/31 07:56:51;;;;;;;18.48;14.75;;;;;;;21.28;100.00;166136.03;5011207;28;20465;-59
2022/07/31 07:59:16;;;;;;;24.85;15.10;;;;;;;21.29;100.00;166138.75;5009988;28;20026;-59
2022/07/31 08:01:41;;;;;;;21.60;16.60;;;;;;;21.20;100.00;166117.00;5012050;28;20405;-59
2022/07/31 08:04:07;;;;;;;18.33;14.82;;;;;;;21.16;100.00;166106.16;5030655;28;20029;-59
2022/07/31 08:06:32;;;;;;;22.88;14.68;;;;;;;21.11;100.00;166092.56;5020271;28;20049;-59
2022/07/31 08:08:57;;;;;;;19.27;15.95;;;;;;;21.17;100.00;166108.91;5019728;28;20021;-59
2022/07/31 08:11:23;;;;;;;22.08;16.58;;;;;;;21.24;100.00;166127.91;5018833;28;20125;-59
2022/07/31 08:13:48;;;;;;;27.85;17.88;;;;;;;21.05;100.00;166077.66;5018939;28;20021;-58
2022/07/31 08:16:14;;;;;;;25.08;16.48;;;;;;;21.10;100.00;166089.88;5016631;28;20049;-59
2022/07/31 08:18:39;;;;;;;19.83;17.23;;;;;;;21.13;100.00;166098.00;5012302;28;20025;-59
2022/07/31 08:21:04;;;;;;;18.42;15.77;;;;;;;21.05;100.00;166076.28;5019376;28;20099;-58
2022/07/31 08:23:30;;;;;;;20.65;15.80;;;;;;;21.08;100.00;166085.78;5018789;28;20052;-59
2022/07/31 08:25:55;;;;;;;28.38;15.32;;;;;;;21.23;100.00;166125.19;5017793;28;20045;-59
2022/07/31 08:28:23;;;;;;;24.83;14.90;;;;;;;21.28;100.00;166136.03;5019984;28;20057;-59
2022/07/31 08:30:49;;;;;;;24.52;19.05;;;;;;;21.55;100.00;166208.00;5017083;28;20128;-59
2022/07/31 08:33:14;;;;;;;20.35;17.33;;;;;;;21.52;100.00;166201.22;5016655;28;20030;-58
2022/07/31 08:35:39;;;;;;;22.60;18.30;;;;;;;21.51;100.00;166198.50;5022865;28;20058;-59
2022/07/31 08:38:05;;;;;;;20.10;18.13;;;;;;;21.53;100.00;166202.56;5022462;28;20524;-59
2022/07/31 08:40:30;;;;;;;23.33;18.88;;;;;;;21.47;100.00;166186.28;5021589;28;20932;-58
2022/07/31 08:42:55;;;;;;;20.85;16.83;;;;;;;21.61;100.00;166224.34;5023964;28;20604;-58
2022/07/31 08:45:21;;;;;;;19.45;17.45;;;;;;;21.82;100.00;166280.06;5021644;28;20400;-58
2022/07/31 08:47:47;;;;;;;23.38;17.55;;;;;;;21.95;100.00;166312.66;5025966;28;20026;-59
2022/07/31 08:50:14;;;;;;;29.80;19.02;;;;;;;22.19;100.00;166377.88;5018352;28;20076;-58
2022/07/31 08:52:42;;;;;;;24.17;18.20;;;;;;;22.32;100.00;166410.47;5034295;28;20032;-58
2022/07/31 08:55:08;;;;;;;20.52;17.02;;;;;;;22.29;100.00;166402.34;5032656;28;20176;-59
2022/07/31 08:57:34;;;;;;;19.77;14.95;;;;;;;22.25;100.00;166391.44;5030610;28;20045;-59
2022/07/31 09:00:01;;;;;;;20.50;15.55;;;;;;;22.34;100.00;166415.91;5015815;28;20037;-57
2022/07/31 09:02:26;;;;;;;24.75;15.95;;;;;;;22.27;100.00;166396.91;5021305;28;20037;-58
2022/07/31 09:04:52;;;;;;;28.40;16.05;;;;;;;22.33;100.00;166413.19;5012873;28;20038;-59
2022/07/31 09:07:17;;;;;;;19.52;17.40;;;;;;;22.42;100.00;166437.72;5025473;28;20026;-58
2022/07/31 09:09:44;;;;;;;20.67;14.98;;;;;;;22.45;100.00;166445.84;5019521;28;20050;-58
2022/07/31 09:12:10;;;;;;;18.92;15.25;;;;;;;22.56;100.00;166473.03;5020666;28;20036;-59
2022/07/31 09:14:35;;;;;;;19.55;14.30;;;;;;;22.58;100.00;166478.47;5018726;28;20045;-59
2022/07/31 09:17:03;;;;;;;17.48;14.80;;;;;;;22.68;100.00;166505.63;5025585;28;20029;-58
2022/07/31 09:19:44;;;;;;;17.52;14.93;;;;;;;22.68;100.00;166505.63;5023478;28;20029;-59
2022/07/31 09:22:23;;;;;;;19.55;13.93;;;;;;;22.70;100.00;166511.09;5013189;28;20061;-59
2022/07/31 09:24:49;;;;;;;24.73;18.27;;;;;;;22.68;100.00;166505.63;5012342;28;20048;-58
2022/07/31 09:27:16;;;;;;;27.17;16.00;;;;;;;22.65;100.00;166497.50;5025108;28;20045;-58
2022/07/31 09:29:43;;;;;;;20.85;14.18;;;;;;;22.62;100.00;166489.34;5013505;28;20104;-58
2022/07/31 09:32:19;;;;;;;20.13;13.70;;;;;;;22.65;100.00;166497.50;5012940;28;20021;-59
2022/07/31 09:34:45;;;;;;;16.75;14.30;;;;;;;22.70;100.00;166511.09;5014370;28;20040;-59
2022/07/31 09:37:12;;;;;;;20.50;12.35;;;;;;;22.71;100.00;166513.81;5015141;28;20056;-64
2022/07/31 09:39:38;;;;;;;14.32;12.82;;;;;;;22.84;100.00;166546.41;5021732;28;20087;-58
2022/07/31 09:42:06;;;;;;;18.13;11.88;;;;;;;22.75;100.00;166524.66;5028672;28;20435;-58
2022/07/31 09:44:36;;;;;;;15.52;10.50;;;;;;;22.75;100.00;166523.31;5027309;28;20025;-58
2022/07/31 09:47:02;;;;;;;18.63;11.38;;;;;;;22.92;100.00;166569.56;5015960;28;20436;-58
2022/07/31 09:49:31;;;;;;;11.32;9.38;;;;;;;22.86;100.00;166553.19;5015704;28;20041;-59
2022/07/31 09:51:58;;;;;;;11.43;9.40;;;;;;;22.68;100.00;166504.31;5014320;28;20045;-59
2022/07/31 09:54:27;;;;;;;9.85;8.40;;;;;;;22.66;100.00;166500.25;5025592;28;20036;-58
2022/07/31 09:56:53;;;;;;;9.40;7.95;;;;;;;22.69;100.00;166508.34;5026487;28;20056;-59
2022/07/31 09:59:18;;;;;;;11.63;8.43;;;;;;;22.69;100.00;166508.34;5018094;28;20037;-59
2022/07/31 10:01:47;;;;;;;10.40;6.20;;;;;;;22.68;100.00;166505.63;5029144;28;20529;-58
2022/07/31 10:04:16;;;;;;;7.45;6.00;;;;;;;22.29;100.00;166402.34;5032418;28;20025;-58
2022/07/31 10:06:45;;;;;;;7.13;6.50;;;;;;;22.23;100.00;166386.06;5022009;28;20444;-59
2022/07/31 10:09:10;;;;;;;11.68;7.13;;;;;;;22.05;100.00;166338.44;5029297;28;20427;-59
2022/07/31 10:11:38;;;;;;;9.52;6.57;;;;;;;21.71;100.00;166250.16;5029389;28;20183;-59
2022/07/31 10:14:09;;;;;;;9.07;6.63;;;;;;;21.59;100.00;166218.97;5030329;28;20116;-59
2022/07/31 10:16:38;;;;;;;9.00;6.78;;;;;;;21.54;100.00;166206.69;5027846;28;20038;-58
2022/07/31 10:19:10;;;;;;;7.90;5.95;;;;;;;21.37;100.00;166160.47;5021661;28;20026;-58
2022/07/31 10:21:41;;;;;;;11.15;7.47;;;;;;;21.31;100.00;166144.19;5020288;28;20091;-58
2022/07/31 10:24:08;;;;;;;10.05;9.02;;;;;;;21.29;100.00;166138.75;5025629;28;20053;-58
2022/07/31 10:26:34;;;;;;;15.43;8.03;;;;;;;21.31;100.00;166145.53;5012837;28;20041;-58
2022/07/31 10:28:59;;;;;;;11.25;8.60;;;;;;;21.36;100.00;166157.75;5009765;28;20448;-59
2022/07/31 10:31:25;;;;;;;13.18;8.82;;;;;;;21.40;100.00;166168.66;5010521;28;20137;-58
2022/07/31 10:33:51;;;;;;;11.05;9.57;;;;;;;21.40;100.00;166168.66;5019514;28;20392;-58
2022/07/31 10:36:20;;;;;;;11.40;7.22;;;;;;;21.41;100.00;166171.31;5021728;28;20069;-59
2022/07/31 10:38:57;;;;;;;9.57;8.50;;;;;;;21.44;100.00;166179.50;5020231;28;20021;-58
2022/07/31 10:41:38;;;;;;;11.30;9.80;;;;;;;21.49;100.00;166193.06;5009078;28;20684;-58
2022/07/31 10:44:22;;;;;;;14.57;8.75;;;;;;;21.60;100.00;166221.63;5011353;28;20448;-59
2022/07/31 10:46:47;;;;;;;10.50;9.32;;;;;;;21.69;100.00;166244.75;5025392;28;20516;-58
2022/07/31 10:49:12;;;;;;;10.48;8.82;;;;;;;21.79;100.00;166270.56;5017823;28;20061;-59
2022/07/31 10:51:49;;;;;;;12.48;10.07;;;;;;;21.80;100.00;166273.28;5015987;28;20026;-58
2022/07/31 10:54:14;;;;;;;11.90;10.70;;;;;;;21.96;100.00;166315.38;5011835;28;20033;-58
2022/07/31 10:56:45;;;;;;;13.63;10.70;;;;;;;22.05;100.00;166339.84;5020007;28;20022;-58
2022/07/31 10:59:10;;;;;;;10.75;9.55;;;;;;;22.24;100.00;166388.72;5019742;28;20061;-58
2022/07/31 11:01:48;;;;;;;15.65;10.38;;;;;;;22.38;100.00;166425.44;5020239;28;20070;-60
2022/07/31 11:04:28;;;;;;;14.83;12.40;;;;;;;22.40;100.00;166432.28;5019663;28;20022;-58
2022/07/31 11:06:53;;;;;;;12.02;10.80;;;;;;;22.32;100.00;166410.47;5017573;28;20472;-58
2022/07/31 11:09:23;;;;;;;18.92;11.18;;;;;;;22.29;100.00;166402.34;5018045;28;20022;-59
2022/07/31 11:11:48;;;;;;;12.98;11.38;;;;;;;22.46;100.00;166447.22;5021122;28;20040;-59
2022/07/31 11:14:14;;;;;;;11.73;10.43;;;;;;;22.65;100.00;166497.50;5021565;28;20021;-59